sensor_id;sensor_type;location;lat;lon;timestamp;P1;durP1;ratioP1;P2;durP2;ratioP2
57401;SDS011;43226;51.110;6.998;2022-10-31T00:00:11;8.93;;;5.60;;
57401;SDS011;43226;51.110;6.998;2022-10-31T00:02:37;12.43;;;6.43;;
57401;SDS011;43226;51.110;6.998;2022-10-31T00:05:03;12.60;;;6.43;;
57401;SDS011;43226;51.110;6.998;2022-10-31T00:07:28;15.93;;;6.50;;
57401;SDS011;43226;51.110;6.998;2022-10-31T00:09:53;14.17;;;5.77;;
57401;SDS011;43226;51.110;6.998;2022-10-31T00:12:18;16.05;;;6.80;;
57401;SDS011;43226;51.110;6.998;2022-10-31T00:14:43;16.13;;;5.80;;
57401;SDS011;43226;51.110;6.998;2022-10-31T00:17:09;12.27;;;5.20;;
57401;SDS011;43226;51.110;6.998;2022-10-31T00:19:34;10.03;;;5.67;;
57401;SDS011;43226;51.110;6.998;2022-10-31T00:21:59;17.90;;;7.47;;
57401;SDS011;43226;51.110;6.998;2022-10-31T00:24:24;13.53;;;6.43;;
57401;SDS011;43226;51.110;6.998;2022-10-31T00:26:49;12.67;;;7.07;;
57401;SDS011;43226;51.110;6.998;2022-10-31T00:29:14;10.48;;;5.75;;
57401;SDS011;43226;51.110;6.998;2022-10-31T00:31:40;7.57;;;5.33;;
57401;SDS011;43226;51.110;6.998;2022-10-31T00:34:05;11.30;;;5.27;;
57401;SDS011;43226;51.110;6.998;2022-10-31T00:36:30;14.83;;;5.80;;
57401;SDS011;43226;51.110;6.998;2022-10-31T00:38:55;11.70;;;5.93;;
57401;SDS011;43226;51.110;6.998;2022-10-31T00:41:22;9.90;;;6.10;;
57401;SDS011;43226;51.110;6.998;2022-10-31T00:43:47;16.27;;;6.07;;
57401;SDS011;43226;51.110;6.998;2022-10-31T00:46:13;13.13;;;6.07;;
57401;SDS011;43226;51.110;6.998;2022-10-31T00:48:38;11.07;;;6.07;;
57401;SDS011;43226;51.110;6.998;2022-10-31T00:51:04;9.93;;;6.77;;
57401;SDS011;43226;51.110;6.998;2022-10-31T00:53:29;16.53;;;6.33;;
57401;SDS011;43226;51.110;6.998;2022-10-31T00:55:54;15.50;;;6.33;;
57401;SDS011;43226;51.110;6.998;2022-10-31T00:58:19;15.67;;;6.30;;
57401;SDS011;43226;51.110;6.998;2022-10-31T01:00:46;20.40;;;6.50;;
57401;SDS011;43226;51.110;6.998;2022-10-31T01:03:11;18.47;;;6.83;;
57401;SDS011;43226;51.110;6.998;2022-10-31T01:05:36;10.43;;;6.67;;
57401;SDS011;43226;51.110;6.998;2022-10-31T01:08:02;9.17;;;5.67;;
57401;SDS011;43226;51.110;6.998;2022-10-31T01:10:27;12.53;;;5.93;;
57401;SDS011;43226;51.110;6.998;2022-10-31T01:12:52;8.83;;;5.10;;
57401;SDS011;43226;51.110;6.998;2022-10-31T01:15:19;13.87;;;5.70;;
57401;SDS011;43226;51.110;6.998;2022-10-31T01:17:44;12.33;;;6.30;;
57401;SDS011;43226;51.110;6.998;2022-10-31T01:20:10;21.53;;;7.63;;
57401;SDS011;43226;51.110;6.998;2022-10-31T01:22:36;12.47;;;6.00;;
57401;SDS011;43226;51.110;6.998;2022-10-31T01:25:01;12.47;;;6.23;;
57401;SDS011;43226;51.110;6.998;2022-10-31T01:27:26;9.40;;;6.03;;
57401;SDS011;43226;51.110;6.998;2022-10-31T01:29:51;8.90;;;6.03;;
57401;SDS011;43226;51.110;6.998;2022-10-31T01:32:16;9.40;;;5.40;;
57401;SDS011;43226;51.110;6.998;2022-10-31T01:34:42;14.10;;;6.33;;
57401;SDS011;43226;51.110;6.998;2022-10-31T01:37:07;10.43;;;5.67;;
57401;SDS011;43226;51.110;6.998;2022-10-31T01:39:32;19.50;;;6.65;;
57401;SDS011;43226;51.110;6.998;2022-10-31T01:41:57;10.80;;;5.90;;
57401;SDS011;43226;51.110;6.998;2022-10-31T01:46:54;11.73;;;5.65;;
57401;SDS011;43226;51.110;6.998;2022-10-31T01:49:24;14.33;;;7.43;;
57401;SDS011;43226;51.110;6.998;2022-10-31T01:51:54;15.37;;;6.40;;
57401;SDS011;43226;51.110;6.998;2022-10-31T01:54:21;18.93;;;6.50;;
57401;SDS011;43226;51.110;6.998;2022-10-31T01:56:48;15.30;;;5.80;;
57401;SDS011;43226;51.110;6.998;2022-10-31T01:59:15;14.10;;;6.47;;
57401;SDS011;43226;51.110;6.998;2022-10-31T02:01:41;13.43;;;6.13;;
57401;SDS011;43226;51.110;6.998;2022-10-31T02:04:07;10.90;;;5.90;;
57401;SDS011;43226;51.110;6.998;2022-10-31T02:06:40;11.50;;;5.57;;
57401;SDS011;43226;51.110;6.998;2022-10-31T02:09:06;17.93;;;6.83;;
57401;SDS011;43226;51.110;6.998;2022-10-31T02:11:31;14.23;;;6.27;;
57401;SDS011;43226;51.110;6.998;2022-10-31T02:13:58;13.20;;;6.30;;
57401;SDS011;43226;51.110;6.998;2022-10-31T02:16:23;12.20;;;6.53;;
57401;SDS011;43226;51.110;6.998;2022-10-31T02:18:48;10.30;;;6.77;;
57401;SDS011;43226;51.110;6.998;2022-10-31T02:26:31;13.67;;;5.73;;
57401;SDS011;43226;51.110;6.998;2022-10-31T02:31:43;12.43;;;6.90;;
57401;SDS011;43226;51.110;6.998;2022-10-31T02:34:21;14.77;;;6.30;;
57401;SDS011;43226;51.110;6.998;2022-10-31T02:36:55;18.33;;;6.00;;
57401;SDS011;43226;51.110;6.998;2022-10-31T02:39:36;11.90;;;6.57;;
57401;SDS011;43226;51.110;6.998;2022-10-31T02:42:05;13.13;;;6.50;;
57401;SDS011;43226;51.110;6.998;2022-10-31T02:47:16;12.80;;;7.20;;
57401;SDS011;43226;51.110;6.998;2022-10-31T02:52:27;11.17;;;5.93;;
57401;SDS011;43226;51.110;6.998;2022-10-31T02:54:52;15.00;;;6.20;;
57401;SDS011;43226;51.110;6.998;2022-10-31T02:57:20;7.70;;;6.20;;
57401;SDS011;43226;51.110;6.998;2022-10-31T02:59:49;7.87;;;5.90;;
57401;SDS011;43226;51.110;6.998;2022-10-31T03:07:30;19.27;;;6.45;;
57401;SDS011;43226;51.110;6.998;2022-10-31T03:12:27;14.30;;;5.80;;
57401;SDS011;43226;51.110;6.998;2022-10-31T03:14:54;10.37;;;5.50;;
57401;SDS011;43226;51.110;6.998;2022-10-31T03:17:27;10.67;;;6.10;;
57401;SDS011;43226;51.110;6.998;2022-10-31T03:19:55;9.33;;;5.90;;
57401;SDS011;43226;51.110;6.998;2022-10-31T03:22:23;16.27;;;7.07;;
57401;SDS011;43226;51.110;6.998;2022-10-31T03:24:50;9.70;;;6.80;;
57401;SDS011;43226;51.110;6.998;2022-10-31T03:27:18;11.33;;;5.63;;
57401;SDS011;43226;51.110;6.998;2022-10-31T03:29:44;21.33;;;6.80;;
57401;SDS011;43226;51.110;6.998;2022-10-31T03:32:12;16.40;;;6.80;;
57401;SDS011;43226;51.110;6.998;2022-10-31T03:34:38;12.30;;;5.97;;
57401;SDS011;43226;51.110;6.998;2022-10-31T03:37:04;11.60;;;6.67;;
57401;SDS011;43226;51.110;6.998;2022-10-31T03:39:29;13.03;;;6.57;;
57401;SDS011;43226;51.110;6.998;2022-10-31T03:42:00;13.80;;;7.83;;
57401;SDS011;43226;51.110;6.998;2022-10-31T03:44:27;15.43;;;6.30;;
57401;SDS011;43226;51.110;6.998;2022-10-31T03:46:54;15.93;;;6.07;;
57401;SDS011;43226;51.110;6.998;2022-10-31T03:49:19;15.00;;;6.70;;
57401;SDS011;43226;51.110;6.998;2022-10-31T03:51:58;13.23;;;6.50;;
57401;SDS011;43226;51.110;6.998;2022-10-31T03:59:38;20.47;;;6.80;;
57401;SDS011;43226;51.110;6.998;2022-10-31T04:02:06;20.63;;;8.17;;
57401;SDS011;43226;51.110;6.998;2022-10-31T04:04:32;16.07;;;6.67;;
57401;SDS011;43226;51.110;6.998;2022-10-31T04:06:58;18.47;;;7.77;;
57401;SDS011;43226;51.110;6.998;2022-10-31T04:09:25;12.60;;;7.57;;
57401;SDS011;43226;51.110;6.998;2022-10-31T04:11:51;22.70;;;6.07;;
57401;SDS011;43226;51.110;6.998;2022-10-31T04:14:17;16.70;;;6.87;;
57401;SDS011;43226;51.110;6.998;2022-10-31T04:16:43;15.60;;;6.50;;
57401;SDS011;43226;51.110;6.998;2022-10-31T04:19:09;11.07;;;7.30;;
57401;SDS011;43226;51.110;6.998;2022-10-31T04:21:34;15.07;;;7.47;;
57401;SDS011;43226;51.110;6.998;2022-10-31T04:24:00;15.43;;;7.37;;
57401;SDS011;43226;51.110;6.998;2022-10-31T04:26:25;13.10;;;8.10;;
57401;SDS011;43226;51.110;6.998;2022-10-31T04:28:50;11.90;;;6.70;;
57401;SDS011;43226;51.110;6.998;2022-10-31T04:31:15;10.80;;;7.23;;
57401;SDS011;43226;51.110;6.998;2022-10-31T04:33:41;10.37;;;6.87;;
57401;SDS011;43226;51.110;6.998;2022-10-31T04:36:06;13.13;;;7.57;;
57401;SDS011;43226;51.110;6.998;2022-10-31T04:38:31;16.70;;;6.47;;
57401;SDS011;43226;51.110;6.998;2022-10-31T04:40:56;21.93;;;7.47;;
57401;SDS011;43226;51.110;6.998;2022-10-31T04:43:21;16.87;;;7.50;;
57401;SDS011;43226;51.110;6.998;2022-10-31T04:45:47;14.33;;;7.60;;
57401;SDS011;43226;51.110;6.998;2022-10-31T04:48:12;18.03;;;6.50;;
57401;SDS011;43226;51.110;6.998;2022-10-31T04:50:37;14.40;;;6.43;;
57401;SDS011;43226;51.110;6.998;2022-10-31T04:53:02;21.67;;;8.63;;
57401;SDS011;43226;51.110;6.998;2022-10-31T04:55:27;15.67;;;6.33;;
57401;SDS011;43226;51.110;6.998;2022-10-31T04:57:53;13.53;;;7.57;;
57401;SDS011;43226;51.110;6.998;2022-10-31T05:00:19;11.60;;;6.53;;
57401;SDS011;43226;51.110;6.998;2022-10-31T05:05:10;11.15;;;6.68;;
57401;SDS011;43226;51.110;6.998;2022-10-31T05:07:38;12.83;;;7.60;;
57401;SDS011;43226;51.110;6.998;2022-10-31T05:10:03;15.50;;;7.17;;
57401;SDS011;43226;51.110;6.998;2022-10-31T05:12:28;16.93;;;7.10;;
57401;SDS011;43226;51.110;6.998;2022-10-31T05:14:53;13.85;;;7.35;;
57401;SDS011;43226;51.110;6.998;2022-10-31T05:17:19;16.87;;;7.77;;
57401;SDS011;43226;51.110;6.998;2022-10-31T05:19:44;12.17;;;7.50;;
57401;SDS011;43226;51.110;6.998;2022-10-31T05:22:09;21.30;;;8.73;;
57401;SDS011;43226;51.110;6.998;2022-10-31T05:24:34;21.60;;;8.43;;
57401;SDS011;43226;51.110;6.998;2022-10-31T05:27:01;13.33;;;8.83;;
57401;SDS011;43226;51.110;6.998;2022-10-31T05:29:26;19.53;;;9.60;;
57401;SDS011;43226;51.110;6.998;2022-10-31T05:31:51;15.90;;;9.17;;
57401;SDS011;43226;51.110;6.998;2022-10-31T05:34:16;24.53;;;9.97;;
57401;SDS011;43226;51.110;6.998;2022-10-31T05:36:41;16.90;;;8.77;;
57401;SDS011;43226;51.110;6.998;2022-10-31T05:39:07;14.27;;;8.70;;
57401;SDS011;43226;51.110;6.998;2022-10-31T05:41:32;13.20;;;8.90;;
57401;SDS011;43226;51.110;6.998;2022-10-31T05:43:57;19.27;;;8.63;;
57401;SDS011;43226;51.110;6.998;2022-10-31T05:46:22;16.67;;;9.27;;
57401;SDS011;43226;51.110;6.998;2022-10-31T05:48:47;17.57;;;8.80;;
57401;SDS011;43226;51.110;6.998;2022-10-31T05:51:13;26.40;;;10.07;;
57401;SDS011;43226;51.110;6.998;2022-10-31T05:53:38;24.93;;;8.60;;
57401;SDS011;43226;51.110;6.998;2022-10-31T05:56:03;14.47;;;7.20;;
57401;SDS011;43226;51.110;6.998;2022-10-31T05:58:28;14.47;;;8.43;;
57401;SDS011;43226;51.110;6.998;2022-10-31T06:00:53;17.50;;;8.30;;
57401;SDS011;43226;51.110;6.998;2022-10-31T06:03:18;14.70;;;8.27;;
57401;SDS011;43226;51.110;6.998;2022-10-31T06:05:44;16.30;;;8.57;;
57401;SDS011;43226;51.110;6.998;2022-10-31T06:08:09;13.80;;;7.90;;
57401;SDS011;43226;51.110;6.998;2022-10-31T06:10:34;18.83;;;8.60;;
57401;SDS011;43226;51.110;6.998;2022-10-31T06:12:59;22.70;;;9.17;;
57401;SDS011;43226;51.110;6.998;2022-10-31T06:15:24;18.10;;;10.60;;
57401;SDS011;43226;51.110;6.998;2022-10-31T06:18:03;24.13;;;9.50;;
57401;SDS011;43226;51.110;6.998;2022-10-31T06:20:28;20.17;;;9.30;;
57401;SDS011;43226;51.110;6.998;2022-10-31T06:22:54;17.47;;;8.37;;
57401;SDS011;43226;51.110;6.998;2022-10-31T06:25:19;21.93;;;9.60;;
57401;SDS011;43226;51.110;6.998;2022-10-31T06:27:44;23.10;;;9.70;;
57401;SDS011;43226;51.110;6.998;2022-10-31T06:30:09;13.70;;;8.10;;
57401;SDS011;43226;51.110;6.998;2022-10-31T06:32:35;14.63;;;8.10;;
57401;SDS011;43226;51.110;6.998;2022-10-31T06:35:00;17.63;;;10.13;;
57401;SDS011;43226;51.110;6.998;2022-10-31T06:37:25;18.80;;;9.57;;
57401;SDS011;43226;51.110;6.998;2022-10-31T06:39:50;13.53;;;8.87;;
57401;SDS011;43226;51.110;6.998;2022-10-31T06:42:16;18.70;;;9.00;;
57401;SDS011;43226;51.110;6.998;2022-10-31T06:44:41;14.70;;;8.50;;
57401;SDS011;43226;51.110;6.998;2022-10-31T06:47:06;23.20;;;9.13;;
57401;SDS011;43226;51.110;6.998;2022-10-31T06:49:31;19.60;;;8.77;;
57401;SDS011;43226;51.110;6.998;2022-10-31T06:51:57;16.47;;;7.93;;
57401;SDS011;43226;51.110;6.998;2022-10-31T06:54:22;20.77;;;8.17;;
57401;SDS011;43226;51.110;6.998;2022-10-31T06:56:47;16.87;;;7.83;;
57401;SDS011;43226;51.110;6.998;2022-10-31T06:59:13;17.03;;;8.00;;
57401;SDS011;43226;51.110;6.998;2022-10-31T07:01:38;22.43;;;8.47;;
57401;SDS011;43226;51.110;6.998;2022-10-31T07:04:03;15.93;;;8.50;;
57401;SDS011;43226;51.110;6.998;2022-10-31T07:06:29;14.23;;;8.37;;
57401;SDS011;43226;51.110;6.998;2022-10-31T07:08:54;17.30;;;8.33;;
57401;SDS011;43226;51.110;6.998;2022-10-31T07:11:19;17.63;;;8.50;;
57401;SDS011;43226;51.110;6.998;2022-10-31T07:13:44;26.97;;;8.90;;
57401;SDS011;43226;51.110;6.998;2022-10-31T07:16:09;15.20;;;8.00;;
57401;SDS011;43226;51.110;6.998;2022-10-31T07:18:39;13.30;;;7.50;;
57401;SDS011;43226;51.110;6.998;2022-10-31T07:21:04;26.00;;;8.53;;
57401;SDS011;43226;51.110;6.998;2022-10-31T07:23:29;16.57;;;7.77;;
57401;SDS011;43226;51.110;6.998;2022-10-31T07:25:55;18.30;;;8.60;;
57401;SDS011;43226;51.110;6.998;2022-10-31T07:28:21;23.70;;;8.70;;
57401;SDS011;43226;51.110;6.998;2022-10-31T07:30:49;18.90;;;9.30;;
57401;SDS011;43226;51.110;6.998;2022-10-31T07:33:14;13.57;;;7.70;;
57401;SDS011;43226;51.110;6.998;2022-10-31T07:35:39;12.53;;;7.90;;
57401;SDS011;43226;51.110;6.998;2022-10-31T07:38:11;13.00;;;7.77;;
57401;SDS011;43226;51.110;6.998;2022-10-31T07:40:36;15.50;;;8.90;;
57401;SDS011;43226;51.110;6.998;2022-10-31T07:43:01;14.90;;;8.37;;
57401;SDS011;43226;51.110;6.998;2022-10-31T07:45:27;20.23;;;8.47;;
57401;SDS011;43226;51.110;6.998;2022-10-31T07:47:52;23.90;;;9.33;;
57401;SDS011;43226;51.110;6.998;2022-10-31T07:50:24;12.93;;;7.80;;
57401;SDS011;43226;51.110;6.998;2022-10-31T07:55:24;21.20;;;9.47;;
57401;SDS011;43226;51.110;6.998;2022-10-31T07:58:00;22.47;;;7.87;;
57401;SDS011;43226;51.110;6.998;2022-10-31T08:00:25;13.60;;;8.63;;
57401;SDS011;43226;51.110;6.998;2022-10-31T08:03:24;18.63;;;8.67;;
57401;SDS011;43226;51.110;6.998;2022-10-31T08:05:42;14.87;;;8.00;;
57401;SDS011;43226;51.110;6.998;2022-10-31T08:08:09;15.87;;;8.20;;
57401;SDS011;43226;51.110;6.998;2022-10-31T08:10:35;13.83;;;9.63;;
57401;SDS011;43226;51.110;6.998;2022-10-31T08:13:01;13.37;;;8.10;;
57401;SDS011;43226;51.110;6.998;2022-10-31T08:15:27;16.90;;;8.33;;
57401;SDS011;43226;51.110;6.998;2022-10-31T08:17:52;15.90;;;8.57;;
57401;SDS011;43226;51.110;6.998;2022-10-31T08:20:18;15.20;;;7.30;;
57401;SDS011;43226;51.110;6.998;2022-10-31T08:22:51;12.50;;;7.63;;
57401;SDS011;43226;51.110;6.998;2022-10-31T08:25:16;11.60;;;7.87;;
57401;SDS011;43226;51.110;6.998;2022-10-31T08:27:42;11.63;;;7.03;;
57401;SDS011;43226;51.110;6.998;2022-10-31T08:30:07;15.10;;;6.90;;
57401;SDS011;43226;51.110;6.998;2022-10-31T08:32:32;20.87;;;8.70;;
57401;SDS011;43226;51.110;6.998;2022-10-31T08:34:57;20.03;;;8.50;;
57401;SDS011;43226;51.110;6.998;2022-10-31T08:37:23;12.70;;;8.33;;
57401;SDS011;43226;51.110;6.998;2022-10-31T08:39:48;12.30;;;7.97;;
57401;SDS011;43226;51.110;6.998;2022-10-31T08:42:14;16.27;;;8.90;;
57401;SDS011;43226;51.110;6.998;2022-10-31T08:44:39;15.53;;;9.10;;
57401;SDS011;43226;51.110;6.998;2022-10-31T08:47:04;22.10;;;8.90;;
57401;SDS011;43226;51.110;6.998;2022-10-31T08:49:29;16.93;;;8.77;;
57401;SDS011;43226;51.110;6.998;2022-10-31T08:51:54;22.30;;;8.50;;
57401;SDS011;43226;51.110;6.998;2022-10-31T08:54:20;18.67;;;7.77;;
57401;SDS011;43226;51.110;6.998;2022-10-31T08:56:45;19.13;;;8.73;;
57401;SDS011;43226;51.110;6.998;2022-10-31T08:59:11;18.57;;;8.90;;
57401;SDS011;43226;51.110;6.998;2022-10-31T09:01:36;22.50;;;8.40;;
57401;SDS011;43226;51.110;6.998;2022-10-31T09:04:01;22.87;;;10.07;;
57401;SDS011;43226;51.110;6.998;2022-10-31T09:06:26;21.20;;;9.37;;
57401;SDS011;43226;51.110;6.998;2022-10-31T09:08:51;15.70;;;8.60;;
57401;SDS011;43226;51.110;6.998;2022-10-31T09:11:16;17.73;;;9.17;;
57401;SDS011;43226;51.110;6.998;2022-10-31T09:13:42;15.77;;;9.33;;
57401;SDS011;43226;51.110;6.998;2022-10-31T09:16:07;16.90;;;8.60;;
57401;SDS011;43226;51.110;6.998;2022-10-31T09:18:33;18.40;;;9.53;;
57401;SDS011;43226;51.110;6.998;2022-10-31T09:20:59;19.50;;;9.40;;
57401;SDS011;43226;51.110;6.998;2022-10-31T09:23:24;17.13;;;7.90;;
57401;SDS011;43226;51.110;6.998;2022-10-31T09:25:50;13.60;;;9.20;;
57401;SDS011;43226;51.110;6.998;2022-10-31T09:28:17;17.07;;;9.00;;
57401;SDS011;43226;51.110;6.998;2022-10-31T09:30:45;17.67;;;9.10;;
57401;SDS011;43226;51.110;6.998;2022-10-31T09:33:10;16.30;;;10.07;;
57401;SDS011;43226;51.110;6.998;2022-10-31T09:35:36;16.60;;;9.30;;
57401;SDS011;43226;51.110;6.998;2022-10-31T09:38:05;16.70;;;9.10;;
57401;SDS011;43226;51.110;6.998;2022-10-31T09:40:33;21.10;;;10.90;;
57401;SDS011;43226;51.110;6.998;2022-10-31T09:50:43;17.00;;;7.97;;
57401;SDS011;43226;51.110;6.998;2022-10-31T09:53:19;13.73;;;8.40;;
57401;SDS011;43226;51.110;6.998;2022-10-31T09:55:47;11.97;;;8.53;;
57401;SDS011;43226;51.110;6.998;2022-10-31T09:58:18;13.50;;;9.17;;
57401;SDS011;43226;51.110;6.998;2022-10-31T10:00:44;19.33;;;9.67;;
57401;SDS011;43226;51.110;6.998;2022-10-31T10:03:25;15.33;;;8.63;;
57401;SDS011;43226;51.110;6.998;2022-10-31T10:08:18;14.32;;;8.80;;
57401;SDS011;43226;51.110;6.998;2022-10-31T10:16:16;21.43;;;9.63;;
57401;SDS011;43226;51.110;6.998;2022-10-31T10:18:52;19.50;;;9.63;;
57401;SDS011;43226;51.110;6.998;2022-10-31T10:21:43;16.70;;;7.93;;
57401;SDS011;43226;51.110;6.998;2022-10-31T10:26:43;20.00;;;9.23;;
57401;SDS011;43226;51.110;6.998;2022-10-31T10:31:41;15.53;;;7.70;;
57401;SDS011;43226;51.110;6.998;2022-10-31T10:34:12;16.07;;;8.50;;
57401;SDS011;43226;51.110;6.998;2022-10-31T10:36:45;14.83;;;8.90;;
57401;SDS011;43226;51.110;6.998;2022-10-31T10:41:36;16.53;;;7.53;;
57401;SDS011;43226;51.110;6.998;2022-10-31T10:44:04;23.60;;;7.63;;
57401;SDS011;43226;51.110;6.998;2022-10-31T10:46:34;12.80;;;7.90;;
57401;SDS011;43226;51.110;6.998;2022-10-31T10:49:37;22.73;;;7.83;;
57401;SDS011;43226;51.110;6.998;2022-10-31T10:52:07;11.30;;;6.50;;
57401;SDS011;43226;51.110;6.998;2022-10-31T10:57:22;15.03;;;6.20;;
57401;SDS011;43226;51.110;6.998;2022-10-31T10:59:51;11.10;;;6.03;;
57401;SDS011;43226;51.110;6.998;2022-10-31T11:02:21;13.07;;;7.33;;
57401;SDS011;43226;51.110;6.998;2022-10-31T11:04:51;11.07;;;7.17;;
57401;SDS011;43226;51.110;6.998;2022-10-31T11:07:16;15.50;;;6.40;;
57401;SDS011;43226;51.110;6.998;2022-10-31T11:09:42;12.10;;;6.20;;
57401;SDS011;43226;51.110;6.998;2022-10-31T11:12:26;18.63;;;6.20;;
57401;SDS011;43226;51.110;6.998;2022-10-31T11:14:53;18.43;;;6.60;;
57401;SDS011;43226;51.110;6.998;2022-10-31T11:17:24;13.53;;;7.03;;
57401;SDS011;43226;51.110;6.998;2022-10-31T11:19:59;12.67;;;5.50;;
57401;SDS011;43226;51.110;6.998;2022-10-31T11:22:24;8.93;;;5.00;;
57401;SDS011;43226;51.110;6.998;2022-10-31T11:24:49;15.20;;;5.23;;
57401;SDS011;43226;51.110;6.998;2022-10-31T11:27:16;19.07;;;5.90;;
57401;SDS011;43226;51.110;6.998;2022-10-31T11:29:41;10.97;;;5.20;;
57401;SDS011;43226;51.110;6.998;2022-10-31T11:32:15;12.80;;;4.53;;
57401;SDS011;43226;51.110;6.998;2022-10-31T11:34:42;14.70;;;4.30;;
57401;SDS011;43226;51.110;6.998;2022-10-31T11:39:38;9.65;;;5.70;;
57401;SDS011;43226;51.110;6.998;2022-10-31T11:42:05;12.20;;;5.50;;
57401;SDS011;43226;51.110;6.998;2022-10-31T11:44:30;10.93;;;5.47;;
57401;SDS011;43226;51.110;6.998;2022-10-31T11:46:58;8.87;;;4.67;;
57401;SDS011;43226;51.110;6.998;2022-10-31T11:51:55;9.57;;;5.07;;
57401;SDS011;43226;51.110;6.998;2022-10-31T11:54:23;14.97;;;5.30;;
57401;SDS011;43226;51.110;6.998;2022-10-31T11:56:49;11.07;;;4.57;;
57401;SDS011;43226;51.110;6.998;2022-10-31T11:59:15;9.33;;;5.37;;
57401;SDS011;43226;51.110;6.998;2022-10-31T12:01:46;12.53;;;4.70;;
57401;SDS011;43226;51.110;6.998;2022-10-31T12:04:11;16.03;;;5.20;;
57401;SDS011;43226;51.110;6.998;2022-10-31T12:06:41;8.70;;;4.47;;
57401;SDS011;43226;51.110;6.998;2022-10-31T12:09:18;10.93;;;4.53;;
57401;SDS011;43226;51.110;6.998;2022-10-31T12:17:05;9.70;;;5.10;;
57401;SDS011;43226;51.110;6.998;2022-10-31T12:24:35;10.37;;;4.37;;
57401;SDS011;43226;51.110;6.998;2022-10-31T12:27:17;11.40;;;4.80;;
57401;SDS011;43226;51.110;6.998;2022-10-31T12:37:43;11.33;;;4.47;;
57401;SDS011;43226;51.110;6.998;2022-10-31T12:43:07;10.77;;;4.40;;
57401;SDS011;43226;51.110;6.998;2022-10-31T12:45:50;13.70;;;4.77;;
57401;SDS011;43226;51.110;6.998;2022-10-31T12:48:40;13.20;;;5.03;;
57401;SDS011;43226;51.110;6.998;2022-10-31T12:53:40;11.87;;;3.93;;
57401;SDS011;43226;51.110;6.998;2022-10-31T12:58:51;8.43;;;4.00;;
57401;SDS011;43226;51.110;6.998;2022-10-31T13:01:24;6.30;;;4.37;;
57401;SDS011;43226;51.110;6.998;2022-10-31T13:04:00;13.20;;;4.73;;
57401;SDS011;43226;51.110;6.998;2022-10-31T13:06:30;10.20;;;4.43;;
57401;SDS011;43226;51.110;6.998;2022-10-31T13:08:59;9.00;;;4.00;;
57401;SDS011;43226;51.110;6.998;2022-10-31T13:11:26;12.20;;;4.33;;
57401;SDS011;43226;51.110;6.998;2022-10-31T13:16:19;10.45;;;4.43;;
57401;SDS011;43226;51.110;6.998;2022-10-31T13:18:54;16.57;;;4.77;;
57401;SDS011;43226;51.110;6.998;2022-10-31T13:21:24;10.00;;;4.00;;
57401;SDS011;43226;51.110;6.998;2022-10-31T13:23:51;13.63;;;4.20;;
57401;SDS011;43226;51.110;6.998;2022-10-31T13:26:53;9.13;;;4.33;;
57401;SDS011;43226;51.110;6.998;2022-10-31T13:31:47;12.03;;;5.20;;
57401;SDS011;43226;51.110;6.998;2022-10-31T13:36:58;13.43;;;4.40;;
57401;SDS011;43226;51.110;6.998;2022-10-31T13:44:24;9.23;;;4.00;;
57401;SDS011;43226;51.110;6.998;2022-10-31T13:46:49;10.10;;;4.30;;
57401;SDS011;43226;51.110;6.998;2022-10-31T13:49:23;8.23;;;4.53;;
57401;SDS011;43226;51.110;6.998;2022-10-31T13:51:49;11.27;;;4.13;;
57401;SDS011;43226;51.110;6.998;2022-10-31T13:54:21;11.97;;;5.10;;
57401;SDS011;43226;51.110;6.998;2022-10-31T13:56:48;11.40;;;4.60;;
57401;SDS011;43226;51.110;6.998;2022-10-31T13:59:15;6.63;;;3.77;;
57401;SDS011;43226;51.110;6.998;2022-10-31T14:04:30;9.40;;;3.70;;
57401;SDS011;43226;51.110;6.998;2022-10-31T14:06:58;7.40;;;3.90;;
57401;SDS011;43226;51.110;6.998;2022-10-31T14:09:31;19.30;;;4.77;;
57401;SDS011;43226;51.110;6.998;2022-10-31T14:11:57;9.20;;;4.17;;
57401;SDS011;43226;51.110;6.998;2022-10-31T14:14:26;10.33;;;4.63;;
57401;SDS011;43226;51.110;6.998;2022-10-31T14:16:55;7.67;;;4.20;;
57401;SDS011;43226;51.110;6.998;2022-10-31T14:19:21;12.43;;;3.43;;
57401;SDS011;43226;51.110;6.998;2022-10-31T14:21:47;11.23;;;4.40;;
57401;SDS011;43226;51.110;6.998;2022-10-31T14:27:03;10.20;;;3.90;;
57401;SDS011;43226;51.110;6.998;2022-10-31T14:29:27;13.73;;;4.30;;
57401;SDS011;43226;51.110;6.998;2022-10-31T14:34:39;10.67;;;4.40;;
57401;SDS011;43226;51.110;6.998;2022-10-31T14:37:13;6.60;;;3.47;;
57401;SDS011;43226;51.110;6.998;2022-10-31T14:42:49;9.30;;;3.50;;
57401;SDS011;43226;51.110;6.998;2022-10-31T14:45:20;10.97;;;3.60;;
57401;SDS011;43226;51.110;6.998;2022-10-31T14:50:48;14.93;;;4.50;;
57401;SDS011;43226;51.110;6.998;2022-10-31T14:53:18;17.03;;;4.67;;
57401;SDS011;43226;51.110;6.998;2022-10-31T14:55:46;10.70;;;3.87;;
57401;SDS011;43226;51.110;6.998;2022-10-31T14:58:13;8.87;;;3.93;;
57401;SDS011;43226;51.110;6.998;2022-10-31T15:00:41;11.57;;;4.27;;
57401;SDS011;43226;51.110;6.998;2022-10-31T15:05:44;7.80;;;3.60;;
57401;SDS011;43226;51.110;6.998;2022-10-31T15:08:13;10.60;;;3.90;;
57401;SDS011;43226;51.110;6.998;2022-10-31T15:10:38;13.13;;;3.60;;
57401;SDS011;43226;51.110;6.998;2022-10-31T15:13:20;7.87;;;3.50;;
57401;SDS011;43226;51.110;6.998;2022-10-31T15:15:46;6.77;;;3.43;;
57401;SDS011;43226;51.110;6.998;2022-10-31T15:18:16;6.90;;;3.33;;
57401;SDS011;43226;51.110;6.998;2022-10-31T15:20:43;11.53;;;4.10;;
57401;SDS011;43226;51.110;6.998;2022-10-31T15:23:10;10.37;;;3.23;;
57401;SDS011;43226;51.110;6.998;2022-10-31T15:25:36;14.80;;;4.93;;
57401;SDS011;43226;51.110;6.998;2022-10-31T15:28:01;6.67;;;3.20;;
57401;SDS011;43226;51.110;6.998;2022-10-31T15:30:27;12.20;;;3.20;;
57401;SDS011;43226;51.110;6.998;2022-10-31T15:32:53;14.90;;;3.60;;
57401;SDS011;43226;51.110;6.998;2022-10-31T15:35:23;11.77;;;4.40;;
57401;SDS011;43226;51.110;6.998;2022-10-31T15:37:49;10.93;;;3.50;;
57401;SDS011;43226;51.110;6.998;2022-10-31T15:40:15;12.07;;;4.07;;
57401;SDS011;43226;51.110;6.998;2022-10-31T15:42:41;9.87;;;4.00;;
57401;SDS011;43226;51.110;6.998;2022-10-31T15:47:38;12.23;;;2.97;;
57401;SDS011;43226;51.110;6.998;2022-10-31T15:50:17;11.17;;;3.70;;
57401;SDS011;43226;51.110;6.998;2022-10-31T15:52:43;6.37;;;3.50;;
57401;SDS011;43226;51.110;6.998;2022-10-31T15:57:39;15.20;;;4.73;;
57401;SDS011;43226;51.110;6.998;2022-10-31T16:00:05;6.53;;;3.87;;
57401;SDS011;43226;51.110;6.998;2022-10-31T16:02:30;11.47;;;2.93;;
57401;SDS011;43226;51.110;6.998;2022-10-31T16:04:57;7.17;;;3.43;;
57401;SDS011;43226;51.110;6.998;2022-10-31T16:07:22;5.67;;;3.10;;
57401;SDS011;43226;51.110;6.998;2022-10-31T16:09:49;14.07;;;3.47;;
57401;SDS011;43226;51.110;6.998;2022-10-31T16:12:14;10.63;;;3.60;;
57401;SDS011;43226;51.110;6.998;2022-10-31T16:14:40;14.23;;;3.70;;
57401;SDS011;43226;51.110;6.998;2022-10-31T16:17:06;10.40;;;3.70;;
57401;SDS011;43226;51.110;6.998;2022-10-31T16:19:36;8.33;;;3.33;;
57401;SDS011;43226;51.110;6.998;2022-10-31T16:22:04;10.43;;;3.97;;
57401;SDS011;43226;51.110;6.998;2022-10-31T16:24:31;10.57;;;3.57;;
57401;SDS011;43226;51.110;6.998;2022-10-31T16:26:59;7.73;;;3.30;;
57401;SDS011;43226;51.110;6.998;2022-10-31T16:29:28;9.10;;;3.47;;
57401;SDS011;43226;51.110;6.998;2022-10-31T16:31:53;7.13;;;3.80;;
57401;SDS011;43226;51.110;6.998;2022-10-31T16:34:22;13.90;;;3.67;;
57401;SDS011;43226;51.110;6.998;2022-10-31T16:36:47;9.17;;;4.50;;
57401;SDS011;43226;51.110;6.998;2022-10-31T16:39:13;6.37;;;3.30;;
57401;SDS011;43226;51.110;6.998;2022-10-31T16:41:42;10.30;;;4.10;;